createdAt,value
2023-05-13T00:01:58.066Z,4.25
2023-05-13T00:04:44.575Z,6.00
2023-05-13T00:07:37.500Z,4.25
2023-05-13T00:10:32.120Z,4.75
2023-05-13T00:12:59.020Z,6.00
2023-05-13T00:15:26.317Z,5.50
2023-05-13T00:17:53.256Z,6.25
2023-05-13T00:20:20.573Z,10.00
2023-05-13T00:22:47.644Z,11.00
2023-05-13T00:25:14.674Z,7.25
2023-05-13T00:27:41.625Z,6.00
2023-05-13T00:30:09.595Z,7.00
2023-05-13T00:32:36.605Z,5.00
2023-05-13T00:35:04.168Z,5.00
2023-05-13T00:37:31.098Z,4.00
2023-05-13T00:39:58.027Z,7.00
2023-05-13T00:42:24.942Z,6.00
2023-05-13T00:44:52.353Z,6.50
2023-05-13T00:47:19.379Z,4.00
2023-05-13T00:49:46.412Z,4.00
2023-05-13T00:52:13.542Z,4.00
2023-05-13T00:54:40.606Z,6.00
2023-05-13T00:57:07.632Z,4.25
2023-05-13T00:59:34.570Z,4.00
2023-05-13T01:02:27.989Z,4.00
2023-05-13T01:04:59.539Z,3.00
2023-05-13T01:08:06.415Z,2.25
2023-05-13T01:11:04.493Z,4.50
2023-05-13T01:13:58.707Z,3.00
2023-05-13T01:17:12.463Z,3.00
2023-05-13T01:19:44.336Z,1.75
2023-05-13T01:22:11.407Z,1.25
2023-05-13T01:24:38.672Z,1.50
2023-05-13T01:27:06.532Z,1.75
2023-05-13T01:29:33.837Z,2.00
2023-05-13T01:32:02.056Z,2.00
2023-05-13T01:34:30.119Z,2.00
2023-05-13T01:36:58.177Z,2.00
2023-05-13T01:39:25.877Z,2.00
2023-05-13T01:41:52.858Z,3.25
2023-05-13T01:44:19.892Z,2.00
2023-05-13T01:46:48.052Z,1.50
2023-05-13T01:49:15.063Z,1.00
2023-05-13T01:51:41.937Z,2.25
2023-05-13T01:54:09.194Z,1.50
2023-05-13T01:56:36.296Z,3.50
2023-05-13T01:59:03.263Z,2.00
2023-05-13T02:01:30.270Z,2.00
2023-05-13T02:04:00.316Z,2.00
2023-05-13T02:06:28.294Z,4.00
2023-05-13T02:08:55.240Z,3.00
2023-05-13T02:11:22.709Z,4.00
2023-05-13T02:13:49.682Z,2.75
2023-05-13T02:16:18.289Z,5.75
2023-05-13T02:18:45.301Z,3.50
2023-05-13T02:21:12.253Z,5.00
2023-05-13T02:23:39.195Z,2.25
2023-05-13T02:26:06.164Z,2.00
2023-05-13T02:28:33.131Z,3.25
2023-05-13T02:31:00.191Z,4.75
2023-05-13T02:33:27.448Z,3.25
2023-05-13T02:35:54.470Z,4.25
2023-05-13T02:38:21.472Z,2.25
2023-05-13T02:40:48.511Z,1.00
2023-05-13T02:43:15.411Z,4.00
2023-05-13T02:45:42.412Z,4.00
2023-05-13T02:48:11.159Z,5.00
2023-05-13T02:50:38.245Z,3.25
2023-05-13T02:53:05.208Z,2.75
2023-05-13T02:55:32.191Z,3.00
2023-05-13T02:57:59.201Z,4.25
2023-05-13T03:00:26.233Z,2.75
2023-05-13T03:02:53.295Z,3.00
2023-05-13T03:05:20.291Z,2.50
2023-05-13T03:07:47.293Z,2.00
2023-05-13T03:10:14.440Z,2.50
2023-05-13T03:12:41.574Z,3.00
2023-05-13T03:15:09.163Z,3.00
2023-05-13T03:17:36.062Z,2.75
2023-05-13T03:20:03.324Z,1.00
2023-05-13T03:22:30.249Z,3.00
2023-05-13T03:24:58.543Z,4.00
2023-05-13T03:27:25.674Z,3.50
2023-05-13T03:29:52.571Z,4.75
2023-05-13T03:32:19.599Z,7.25
2023-05-13T03:34:46.578Z,6.75
2023-05-13T03:37:13.488Z,5.00
2023-05-13T03:39:40.376Z,8.25
2023-05-13T03:42:07.564Z,8.25
2023-05-13T03:44:35.521Z,5.50
2023-05-13T03:47:02.524Z,7.75
2023-05-13T03:49:29.434Z,8.00
2023-05-13T03:51:56.362Z,8.25
2023-05-13T03:54:24.538Z,8.50
2023-05-13T03:56:51.481Z,3.75
2023-05-13T03:59:18.441Z,6.25
2023-05-13T04:01:45.373Z,4.00
2023-05-13T04:04:12.303Z,4.50
2023-05-13T04:06:39.262Z,5.00
2023-05-13T04:09:06.315Z,6.00
2023-05-13T04:11:33.389Z,7.25
2023-05-13T04:14:00.318Z,9.00
2023-05-13T04:16:28.047Z,2.25
2023-05-13T04:18:55.197Z,9.00
2023-05-13T04:21:22.227Z,8.25
2023-05-13T04:23:49.183Z,8.00
2023-05-13T04:26:16.067Z,9.75
2023-05-13T04:28:43.018Z,9.00
2023-05-13T04:31:10.659Z,8.75
2023-05-13T04:33:37.582Z,6.00
2023-05-13T04:36:04.774Z,5.00
2023-05-13T04:38:32.221Z,5.00
2023-05-13T04:40:59.124Z,6.50
2023-05-13T04:43:26.214Z,5.50
2023-05-13T04:45:53.239Z,7.50
2023-05-13T04:48:20.209Z,8.75
2023-05-13T04:50:47.933Z,7.25
2023-05-13T04:53:16.153Z,6.50
2023-05-13T04:55:44.285Z,10.25
2023-05-13T04:58:11.239Z,9.75
2023-05-13T05:00:38.132Z,5.75
2023-05-13T05:03:05.173Z,8.75
2023-05-13T05:05:32.172Z,6.00
2023-05-13T05:07:59.108Z,9.25
2023-05-13T05:10:26.197Z,10.50
2023-05-13T05:12:53.142Z,9.00
2023-05-13T05:15:20.537Z,4.75
2023-05-13T05:17:47.512Z,7.50
2023-05-13T05:20:14.661Z,7.50
2023-05-13T05:22:42.433Z,5.25
2023-05-13T05:25:10.325Z,8.00
2023-05-13T05:27:37.267Z,9.50
2023-05-13T05:30:04.817Z,8.25
2023-05-13T05:32:32.035Z,6.00
2023-05-13T05:35:02.331Z,7.00
2023-05-13T05:37:30.617Z,9.00
2023-05-13T05:39:58.116Z,8.25
2023-05-13T05:42:25.104Z,6.00
2023-05-13T05:44:52.082Z,6.00
2023-05-13T05:47:19.016Z,5.25
2023-05-13T05:49:46.601Z,5.75
2023-05-13T05:52:13.628Z,9.75
2023-05-13T05:54:40.601Z,5.00
2023-05-13T05:57:07.522Z,13.00
2023-05-13T05:59:34.449Z,8.25
2023-05-13T06:02:01.716Z,8.25
2023-05-13T06:04:28.748Z,8.00
2023-05-13T06:06:55.728Z,9.25
2023-05-13T06:09:22.797Z,6.00
2023-05-13T06:11:49.767Z,9.50
2023-05-13T06:14:17.925Z,9.00
2023-05-13T06:16:44.845Z,8.00
2023-05-13T06:19:11.889Z,8.75
2023-05-13T06:21:38.844Z,9.50
2023-05-13T06:24:05.949Z,6.50
2023-05-13T06:26:32.879Z,9.25
2023-05-13T06:28:59.826Z,8.00
2023-05-13T06:31:27.063Z,5.00
2023-05-13T06:33:53.994Z,7.00
2023-05-13T06:36:20.896Z,5.50
2023-05-13T06:38:47.810Z,6.00
2023-05-13T06:41:15.585Z,4.00
2023-05-13T06:43:45.806Z,5.00
2023-05-13T06:46:13.127Z,4.67
2023-05-13T06:48:40.135Z,7.67
2023-05-13T06:51:07.413Z,5.00
2023-05-13T06:53:34.288Z,5.67
2023-05-13T06:56:01.203Z,6.00
2023-05-13T06:58:28.186Z,6.00
2023-05-13T07:00:55.178Z,7.00
2023-05-13T07:03:22.139Z,5.33
2023-05-13T07:05:49.185Z,5.33
2023-05-13T07:08:18.195Z,3.00
2023-05-13T07:10:45.386Z,5.33
2023-05-13T07:13:12.823Z,5.00
2023-05-13T07:15:39.748Z,4.00
2023-05-13T07:18:06.865Z,4.00
2023-05-13T07:20:33.864Z,5.00
2023-05-13T07:23:00.770Z,4.00
2023-05-13T07:25:27.789Z,3.00
2023-05-13T07:27:54.782Z,2.33
2023-05-13T07:30:21.974Z,5.00
2023-05-13T07:32:49.155Z,2.67
2023-05-13T07:35:17.426Z,3.33
2023-05-13T07:37:44.987Z,3.00
2023-05-13T07:40:13.474Z,5.33
2023-05-13T07:42:41.084Z,2.67
2023-05-13T07:45:09.113Z,7.00
2023-05-13T07:47:36.141Z,5.33
2023-05-13T07:50:03.193Z,5.00
2023-05-13T07:52:30.149Z,5.00
2023-05-13T07:54:57.115Z,4.00
2023-05-13T07:57:24.329Z,4.67
2023-05-13T07:59:51.299Z,5.00
2023-05-13T08:02:18.220Z,6.33
2023-05-13T08:04:45.225Z,5.00
2023-05-13T08:07:12.304Z,5.33
2023-05-13T08:09:40.018Z,5.67
2023-05-13T08:12:07.242Z,5.00
2023-05-13T08:14:34.231Z,6.00
2023-05-13T08:17:01.312Z,6.33
2023-05-13T08:19:28.316Z,5.00
2023-05-13T08:21:55.970Z,4.00
2023-05-13T08:24:22.907Z,5.00
2023-05-13T08:26:50.002Z,4.33
2023-05-13T08:29:16.898Z,4.00
2023-05-13T08:31:43.955Z,4.00
2023-05-13T08:34:11.262Z,5.00
2023-05-13T08:36:38.216Z,5.00
2023-05-13T08:39:05.541Z,3.00
2023-05-13T08:41:34.205Z,5.00
2023-05-13T08:44:07.770Z,5.00
2023-05-13T08:46:38.189Z,4.00
2023-05-13T08:49:05.710Z,4.00
2023-05-13T08:51:32.675Z,6.67
2023-05-13T08:54:01.459Z,4.33
2023-05-13T08:56:30.037Z,4.67
2023-05-13T08:58:57.082Z,3.67
2023-05-13T09:01:27.028Z,2.67
2023-05-13T09:04:04.644Z,6.33
2023-05-13T09:06:31.565Z,4.33
2023-05-13T09:08:59.201Z,4.67
2023-05-13T09:11:26.605Z,3.00
2023-05-13T09:14:00.913Z,5.00
2023-05-13T09:16:32.939Z,5.33
2023-05-13T09:19:03.426Z,3.00
2023-05-13T09:21:32.647Z,3.00
2023-05-13T09:24:08.821Z,4.67
2023-05-13T09:26:38.646Z,5.33
2023-05-13T09:29:31.108Z,3.67
2023-05-13T09:32:00.481Z,4.00
2023-05-13T09:34:31.390Z,7.00
2023-05-13T09:37:08.581Z,4.00
2023-05-13T09:39:40.293Z,3.00
2023-05-13T09:42:18.302Z,3.00
2023-05-13T09:44:46.506Z,3.00
2023-05-13T09:47:18.171Z,4.00
2023-05-13T09:49:47.425Z,6.00
2023-05-13T09:52:17.423Z,4.00
2023-05-13T09:54:45.334Z,4.00
2023-05-13T09:57:14.174Z,4.33
2023-05-13T09:59:42.053Z,5.00
2023-05-13T10:02:09.056Z,5.33
2023-05-13T10:04:36.100Z,6.00
2023-05-13T10:07:04.680Z,2.33
2023-05-13T10:09:36.523Z,4.67
2023-05-13T10:12:04.449Z,5.67
2023-05-13T10:14:31.879Z,5.00
2023-05-13T10:16:59.649Z,8.00
2023-05-13T10:19:27.287Z,7.00
2023-05-13T10:21:54.753Z,6.00
2023-05-13T10:24:22.982Z,7.50
2023-05-13T10:26:52.965Z,5.67
2023-05-13T10:29:20.174Z,4.00
2023-05-13T10:31:48.285Z,6.67
2023-05-13T10:34:15.319Z,5.00
2023-05-13T10:37:02.090Z,5.00
2023-05-13T10:39:40.920Z,6.75
2023-05-13T10:42:33.865Z,6.00
2023-05-13T10:45:01.801Z,6.00
2023-05-13T10:47:32.773Z,4.00
2023-05-13T10:50:07.305Z,7.00
2023-05-13T10:52:48.041Z,5.00
2023-05-13T10:55:17.546Z,6.50
2023-05-13T10:58:12.282Z,5.00
2023-05-13T11:00:43.802Z,6.00
2023-05-13T11:03:19.985Z,5.00
2023-05-13T11:06:00.542Z,4.25
2023-05-13T11:08:39.010Z,4.00
2023-05-13T11:11:29.964Z,6.00
2023-05-13T11:14:12.744Z,5.00
2023-05-13T11:16:39.916Z,6.00
2023-05-13T11:19:18.529Z,6.00
2023-05-13T11:21:51.110Z,6.75
2023-05-13T11:24:19.584Z,5.25
2023-05-13T11:26:51.910Z,5.00
2023-05-13T11:29:52.285Z,5.00
2023-05-13T11:32:58.555Z,7.00
2023-05-13T11:35:27.066Z,6.00
2023-05-13T11:37:56.994Z,5.75
2023-05-13T11:40:30.776Z,4.00
2023-05-13T11:42:59.130Z,7.75
2023-05-13T11:45:27.958Z,8.00
2023-05-13T11:47:55.447Z,8.00
2023-05-13T11:50:24.429Z,5.50
2023-05-13T11:52:55.606Z,3.67
2023-05-13T11:55:27.395Z,6.00
2023-05-13T11:57:54.649Z,7.00
2023-05-13T12:00:32.419Z,7.33
2023-05-13T12:03:00.944Z,5.00
2023-05-13T12:05:28.199Z,6.00
2023-05-13T12:07:58.766Z,7.00
2023-05-13T12:10:26.625Z,6.00
2023-05-13T12:12:54.219Z,6.00
2023-05-13T12:15:22.407Z,5.00
2023-05-13T12:17:50.467Z,9.25
2023-05-13T12:20:19.923Z,8.00
2023-05-13T12:22:47.053Z,8.00
2023-05-13T12:25:33.107Z,7.00
2023-05-13T12:28:00.597Z,5.33
2023-05-13T12:30:34.647Z,7.00
2023-05-13T12:33:01.929Z,9.00
2023-05-13T12:35:28.873Z,7.00
2023-05-13T12:38:06.639Z,7.67
2023-05-13T12:40:33.598Z,8.00
2023-05-13T12:43:02.117Z,6.33
2023-05-13T12:45:30.800Z,7.67
2023-05-13T12:47:58.729Z,5.33
2023-05-13T12:50:26.594Z,4.00
2023-05-13T12:52:58.047Z,5.67
2023-05-13T12:55:29.657Z,8.00
2023-05-13T12:57:56.751Z,6.00
2023-05-13T13:00:24.725Z,5.00
2023-05-13T13:02:53.909Z,5.00
2023-05-13T13:05:24.359Z,6.00
2023-05-13T13:07:54.916Z,5.67
2023-05-13T13:10:22.177Z,6.33
2023-05-13T13:12:49.806Z,6.00
2023-05-13T13:15:17.079Z,4.00
2023-05-13T13:17:45.193Z,6.67
2023-05-13T13:20:12.800Z,5.00
2023-05-13T13:22:39.789Z,5.00
2023-05-13T13:25:07.697Z,8.00
2023-05-13T13:27:35.282Z,4.00
2023-05-13T13:30:02.763Z,5.67
2023-05-13T13:32:29.758Z,6.00
2023-05-13T13:34:58.422Z,5.33
2023-05-13T13:37:25.402Z,5.33
2023-05-13T13:39:52.331Z,4.67
2023-05-13T13:42:19.286Z,4.33
2023-05-13T13:44:46.221Z,5.33
2023-05-13T13:47:13.127Z,3.67
2023-05-13T13:49:40.487Z,5.33
2023-05-13T13:52:08.686Z,6.00
2023-05-13T13:54:35.613Z,5.67
2023-05-13T13:57:02.920Z,4.67
2023-05-13T13:59:29.902Z,3.67
2023-05-13T14:01:57.235Z,5.33
2023-05-13T14:04:27.699Z,5.00
2023-05-13T14:06:57.985Z,6.00
2023-05-13T14:09:25.464Z,7.00
2023-05-13T14:11:52.438Z,5.33
2023-05-13T14:14:19.360Z,7.33
2023-05-13T14:16:46.515Z,7.67
2023-05-13T14:19:13.580Z,5.00
2023-05-13T14:21:40.608Z,5.33
2023-05-13T14:24:08.798Z,5.33
2023-05-13T14:26:35.852Z,5.00
2023-05-13T14:29:02.850Z,5.00
2023-05-13T14:31:31.774Z,6.67
2023-05-13T14:33:58.848Z,4.00
2023-05-13T14:36:27.002Z,4.67
2023-05-13T14:38:54.644Z,6.33
2023-05-13T14:41:22.961Z,5.00
2023-05-13T14:43:50.006Z,5.67
2023-05-13T14:46:17.372Z,5.67
2023-05-13T14:48:44.334Z,3.00
2023-05-13T14:51:12.591Z,4.33
2023-05-13T14:53:43.193Z,4.67
2023-05-13T14:56:10.342Z,4.67
2023-05-13T14:58:37.219Z,4.00
2023-05-13T15:01:04.371Z,3.00
2023-05-13T15:03:31.333Z,4.00
2023-05-13T15:05:58.498Z,5.33
2023-05-13T15:08:25.778Z,5.00
2023-05-13T15:10:52.724Z,3.00
2023-05-13T15:13:20.032Z,6.00
2023-05-13T15:15:47.133Z,7.00
2023-05-13T15:18:14.433Z,5.33
2023-05-13T15:20:41.622Z,6.00
2023-05-13T15:23:08.859Z,4.00
2023-05-13T15:25:36.584Z,5.00
2023-05-13T15:28:03.854Z,7.00
2023-05-13T15:30:30.845Z,6.00
2023-05-13T15:32:57.943Z,4.00
2023-05-13T15:35:24.918Z,3.67
2023-05-13T15:37:51.868Z,5.00
2023-05-13T15:40:18.803Z,3.33
2023-05-13T15:42:45.789Z,4.00
2023-05-13T15:45:12.713Z,4.75
2023-05-13T15:47:39.766Z,7.00
2023-05-13T15:50:07.275Z,5.25
2023-05-13T15:52:34.226Z,5.25
2023-05-13T15:55:01.248Z,4.00
2023-05-13T15:57:28.176Z,3.25
2023-05-13T15:59:55.124Z,2.75
2023-05-13T16:02:22.016Z,3.75
2023-05-13T16:04:50.228Z,4.50
2023-05-13T16:07:17.148Z,4.50
2023-05-13T16:09:44.106Z,3.00
2023-05-13T16:12:11.048Z,2.67
2023-05-13T16:14:38.682Z,2.00
2023-05-13T16:17:05.864Z,2.00
2023-05-13T16:19:32.880Z,3.00
2023-05-13T16:21:59.773Z,3.50
2023-05-13T16:24:26.765Z,3.00
2023-05-13T16:26:53.756Z,4.00
2023-05-13T16:29:20.688Z,3.25
2023-05-13T16:31:47.666Z,3.25
2023-05-13T16:34:14.997Z,4.00
2023-05-13T16:36:43.433Z,2.00
2023-05-13T16:39:10.365Z,4.00
2023-05-13T16:41:37.323Z,4.00
2023-05-13T16:44:04.412Z,3.00
2023-05-13T16:46:35.614Z,5.75
2023-05-13T16:49:02.721Z,5.00
2023-05-13T16:51:29.816Z,5.00
2023-05-13T16:53:56.750Z,4.00
2023-05-13T16:56:23.705Z,4.00
2023-05-13T16:58:50.641Z,4.00
2023-05-13T17:01:17.577Z,3.75
2023-05-13T17:03:44.644Z,3.50
2023-05-13T17:06:11.661Z,2.00
2023-05-13T17:08:38.605Z,4.25
2023-05-13T17:11:05.744Z,53.67
2023-05-13T17:13:32.691Z,38.00
2023-05-13T17:15:59.614Z,33.00
2023-05-13T17:18:26.808Z,21.50
2023-05-13T17:20:55.185Z,13.25
2023-05-13T17:23:22.095Z,11.25
2023-05-13T17:25:49.048Z,8.00
2023-05-13T17:31:57.092Z,6.00
2023-05-13T17:34:24.041Z,8.00
2023-05-13T17:36:50.956Z,6.00
2023-05-13T17:39:17.930Z,5.25
2023-05-13T17:41:44.853Z,43.25
2023-05-13T17:44:13.275Z,30.00
2023-05-13T17:46:40.221Z,23.25
2023-05-13T17:49:08.557Z,24.00
2023-05-13T17:51:35.767Z,22.75
2023-05-13T17:54:02.761Z,15.25
2023-05-13T17:56:29.706Z,13.75
2023-05-13T17:58:57.553Z,8.50
2023-05-13T18:01:24.466Z,6.00
2023-05-13T18:03:51.599Z,5.50
2023-05-13T18:06:18.562Z,3.75
2023-05-13T18:08:45.512Z,2.00
2023-05-13T18:11:12.428Z,2.00
2023-05-13T18:13:39.411Z,1.50
2023-05-13T18:16:07.734Z,1.00
2023-05-13T18:18:34.729Z,1.00
2023-05-13T18:21:02.096Z,1.00
2023-05-13T18:23:29.057Z,2.50
2023-05-13T18:25:56.563Z,2.00
2023-05-13T18:28:23.813Z,3.00
2023-05-13T18:30:50.866Z,5.00
2023-05-13T18:33:20.669Z,5.00
2023-05-13T18:35:47.810Z,6.50
2023-05-13T18:38:14.689Z,8.00
2023-05-13T18:40:41.641Z,7.25
2023-05-13T18:43:08.573Z,6.00
2023-05-13T18:45:35.575Z,5.00
2023-05-13T18:48:02.657Z,4.75
2023-05-13T18:50:29.691Z,6.50
2023-05-13T18:52:56.669Z,6.75
2023-05-13T18:55:23.601Z,5.50
2023-05-13T18:57:51.016Z,7.50
2023-05-13T19:00:18.726Z,6.00
2023-05-13T19:02:45.774Z,4.00
